65.7°F
Current conditions from King Hill
Updated every 5 minutes
 
  Tuesday September 2, 2014

Station Historical Data
Daily Summary for May 20, 2011 Units:  Metric    English   Both
« Previous Day
Next Day »
Daily Weekly Monthly Yearly Custom
  High: Low: Average:
Temperature: 21.4 °C 12.8 °C 16.1 °C
Dew Point: 17.3 °C 11.8 °C 14.7 °C
Humidity: 97% 75% 92%
Wind Speed: 12.9km/h 1.6km/h 4.2km/h
Wind Gust: 20.9km/h - -
Wind- - SW
Pressure: 1014.4 hPa 1011.1 hPa -
Precipitation: 20.3 mm    
Historical Graphs
 
 
Tabular Data for May 20, 2011
Time Temperature Dew Point Pressure Wind Wind Speed Wind Gust Humidity Daily Rainfall
00:00 15.4 °C 13.3 °C 1014.4 hPa SSW 1.6 km/h 8 km/h 87% 3.6 mm
00:10 15.5 °C 13.3 °C 1014.4 hPa SSW 1.6 km/h 8 km/h 87% 0 mm
00:15 15.6 °C 13.4 °C 1014.4 hPa Calm   8 km/h 87% 0 mm
00:20 15.5 °C 13.3 °C 1014.4 hPa Calm   3.2 km/h 87% 0 mm
00:25 15.5 °C 13.3 °C 1014.4 hPa SSW 3.2 km/h 8 km/h 87% 0 mm
00:30 15.5 °C 13.3 °C 1014.4 hPa Calm   8 km/h 87% 0 mm
00:35 15.4 °C 13.2 °C 1014.4 hPa SSW 1.6 km/h 8 km/h 87% 0 mm
00:40 15.2 °C 13.1 °C 1014.4 hPa Calm   6.4 km/h 87% 0 mm
00:45 15 °C 13.1 °C 1014.4 hPa Calm   3.2 km/h 88% 0 mm
00:50 15 °C 13.2 °C 1014.4 hPa Calm   4.8 km/h 89% 0 mm
00:55 14.9 °C 13.1 °C 1014.4 hPa Calm   4.8 km/h 89% 0 mm
01:00 14.6 °C 12.8 °C 1014.4 hPa Calm   3.2 km/h 89% 0 mm
01:05 14.3 °C 12.5 °C 1014.4 hPa Calm     89% 0 mm
01:10 14.1 °C 12.5 °C 1014.4 hPa Calm     90% 0 mm
01:15 14.1 °C 12.4 °C 1014.4 hPa Calm     90% 0 mm
01:20 13.9 °C 12.5 °C 1014.4 hPa Calm     91% 0 mm
01:25 13.7 °C 12.2 °C 1014.4 hPa Calm     91% 0 mm
01:30 13.8 °C 12.5 °C 1014.4 hPa Calm     92% 0 mm
01:35 13.8 °C 12.6 °C 1014.4 hPa Calm     92% 0 mm
01:40 13.7 °C 12.4 °C 1014.4 hPa Calm     92% 0 mm
01:45 13.6 °C 12.5 °C 1014.4 hPa Calm     93% 0 mm
01:50 13.6 °C 12.4 °C 1014.4 hPa Calm     93% 0 mm
01:55 13.6 °C 12.4 °C 1014.4 hPa Calm     93% 0 mm
02:00 13.5 °C 12.4 °C 1014.1 hPa Calm     93% 0 mm
02:05 13.4 °C 12.3 °C 1014.1 hPa Calm     93% 0 mm
02:10 13.3 °C 12.2 °C 1014.1 hPa Calm     93% 0 mm
02:15 13.3 °C 12.2 °C 1014.1 hPa SSW 3.2 km/h 4.8 km/h 93% 0 mm
02:20 13.2 °C 12.1 °C 1014.1 hPa Calm   4.8 km/h 93% 0 mm
02:25 13.3 °C 12.3 °C 1014.1 hPa Calm   4.8 km/h 94% 0 mm
02:30 13.3 °C 12.4 °C 1014.1 hPa Calm     94% 0 mm
02:35 13.6 °C 12.8 °C 1014.1 hPa Calm   1.6 km/h 95% 0 mm
02:40 13.8 °C 13 °C 1014.1 hPa Calm   1.6 km/h 95% 0 mm
02:45 13.7 °C 12.9 °C 1014.1 hPa Calm   1.6 km/h 95% 0 mm
02:50 13.7 °C 12.9 °C 1014.1 hPa Calm   1.6 km/h 95% 0 mm
02:55 13.6 °C 12.8 °C 1014.1 hPa Calm     95% 0 mm
03:00 13.7 °C 12.9 °C 1014.1 hPa Calm     95% 0 mm
03:05 13.7 °C 12.9 °C 1014.1 hPa Calm     95% 0 mm
03:10 13.7 °C 12.9 °C 1014.1 hPa Calm   1.6 km/h 95% 0 mm
03:15 13.7 °C 12.9 °C 1014.1 hPa Calm   3.2 km/h 95% 0 mm
03:20 13.3 °C 12.3 °C 1014.1 hPa Calm   3.2 km/h 94% 0 mm
03:25 12.8 °C 11.8 °C 1014.1 hPa Calm   1.6 km/h 94% 0 mm
03:30 12.8 °C 12.1 °C 1014.1 hPa Calm   1.6 km/h 95% 0 mm
03:40 13.1 °C 12.3 °C 1014.1 hPa Calm     95% 0 mm
03:45 13.1 °C 12.3 °C 1014.1 hPa Calm     95% 0 mm
03:50 13 °C 12.2 °C 1014.1 hPa Calm     95% 0 mm
04:00 13 °C 12.2 °C 1014.1 hPa Calm     95% 0 mm
04:05 13.2 °C 12.4 °C 1014.1 hPa Calm     95% 0 mm
04:10 13.2 °C 12.6 °C 1013.8 hPa Calm     96% 0 mm
04:15 13.1 °C 12.3 °C 1013.8 hPa Calm     95% 0 mm
04:20 13.1 °C 12.3 °C 1014.1 hPa Calm     95% 0 mm
04:25 13.2 °C 12.6 °C 1014.1 hPa Calm     96% 0 mm
04:30 13.2 °C 12.6 °C 1013.8 hPa Calm     96% 0 mm
04:35 13.2 °C 12.6 °C 1014.1 hPa Calm     96% 0 mm
04:40 13.2 °C 12.6 °C 1014.1 hPa Calm     96% 0 mm
04:45 13.3 °C 12.7 °C 1014.1 hPa Calm   3.2 km/h 96% 0 mm
04:50 13.8 °C 13.2 °C 1014.1 hPa SSW 1.6 km/h 6.4 km/h 96% 0 mm
04:55 14.2 °C 13.6 °C 1014.1 hPa SSW 1.6 km/h 6.4 km/h 96% 0 mm
05:00 14.4 °C 13.8 °C 1014.1 hPa Calm   4.8 km/h 96% 0 mm
05:05 14.3 °C 13.7 °C 1014.1 hPa SSW 1.6 km/h 4.8 km/h 96% 0 mm
05:10 14.1 °C 13.5 °C 1014.1 hPa Calm   4.8 km/h 96% 0 mm
05:15 14.1 °C 13.5 °C 1014.1 hPa Calm   4.8 km/h 96% 0 mm
05:20 14.1 °C 13.5 °C 1014.1 hPa Calm     96% 0 mm
05:25 14.1 °C 13.4 °C 1014.1 hPa Calm     96% 0 mm
05:35 14.1 °C 13.4 °C 1014.1 hPa Calm     96% 0 mm
05:40 14.1 °C 13.4 °C 1014.1 hPa Calm     96% 0 mm
05:45 14.1 °C 13.5 °C 1014.1 hPa Calm     96% 0 mm
05:50 14.1 °C 13.4 °C 1014.1 hPa SSW 1.6 km/h 3.2 km/h 96% 0 mm
05:55 14 °C 13.4 °C 1014.1 hPa Calm   3.2 km/h 96% 0 mm
06:00 14 °C 13.4 °C 1014.1 hPa Calm     96% 0 mm
06:05 14.1 °C 13.4 °C 1014.1 hPa Calm     96% 0 mm
06:10 14.1 °C 13.4 °C 1014.1 hPa Calm     96% 0 mm
06:15 14.1 °C 13.4 °C 1014.1 hPa Calm     96% 0 mm
06:20 14.1 °C 13.5 °C 1014.1 hPa Calm     96% 0 mm
06:25 14.2 °C 13.6 °C 1014.1 hPa Calm     96% 0 mm
06:30 14.3 °C 13.7 °C 1014.1 hPa Calm     96% 0 mm
06:35 14.4 °C 13.8 °C 1014.1 hPa Calm     96% 0 mm
06:40 14.6 °C 13.9 °C 1014.1 hPa Calm     96% 0 mm
06:45 14.6 °C 13.9 °C 1014.1 hPa Calm     96% 0 mm
06:50 14.6 °C 13.9 °C 1014.1 hPa Calm     96% 0 mm
06:55 14.7 °C 14.1 °C 1014.1 hPa Calm     96% 0 mm
07:00 14.8 °C 14.4 °C 1014.1 hPa Calm   1.6 km/h 97% 0 mm
07:05 15 °C 14.4 °C 1014.1 hPa Calm   4.8 km/h 96% 0 mm
07:10 15 °C 14.4 °C 1014.1 hPa Calm   4.8 km/h 96% 0 mm
07:15 15.1 °C 14.4 °C 1013.8 hPa Calm   3.2 km/h 96% 0 mm
07:20 15.2 °C 14.7 °C 1013.8 hPa SSE 1.6 km/h 4.8 km/h 97% 0 mm
07:25 15.3 °C 14.8 °C 1013.8 hPa Calm   4.8 km/h 97% 0 mm
07:30 15.4 °C 14.8 °C 1013.8 hPa Calm   4.8 km/h 96% 0 mm
07:35 15.5 °C 14.9 °C 1013.8 hPa Calm   1.6 km/h 96% 0 mm
07:40 15.7 °C 15.1 °C 1013.8 hPa Calm   1.6 km/h 96% 0 mm
07:45 15.9 °C 15.3 °C 1013.8 hPa Calm   1.6 km/h 96% 0 mm
07:50 16.2 °C 15.6 °C 1013.8 hPa Calm   3.2 km/h 96% 0 mm
07:55 16.4 °C 15.6 °C 1013.8 hPa Calm   3.2 km/h 95% 0 mm
08:00 16.6 °C 15.6 °C 1013.8 hPa Calm     94% 0 mm
08:05 16.6 °C 15.5 °C 1013.8 hPa Calm     93% 0 mm
08:10 16.8 °C 15.7 °C 1013.8 hPa Calm     93% 0 mm
08:15 16.9 °C 15.8 °C 1014.1 hPa Calm     93% 0 mm
08:20 17 °C 15.8 °C 1014.1 hPa Calm     93% 0 mm
08:30 16.9 °C 15.4 °C 1014.1 hPa Calm     91% 0 mm
08:35 16.9 °C 15.4 °C 1014.1 hPa Calm     91% 0 mm
08:40 16.9 °C 15.4 °C 1014.1 hPa Calm     91% 0 mm
08:45 17.1 °C 15.6 °C 1014.1 hPa Calm     91% 0 mm
08:50 17.2 °C 15.5 °C 1014.1 hPa Calm     90% 0 mm
08:55 17.3 °C 15.7 °C 1014.1 hPa Calm     90% 0 mm
09:00 17.5 °C 15.8 °C 1014.1 hPa Calm   1.6 km/h 90% 0 mm
09:05 17.7 °C 16.1 °C 1013.8 hPa Calm   3.2 km/h 90% 0 mm
09:10 17.9 °C 16.1 °C 1013.8 hPa East 1.6 km/h 3.2 km/h 89% 0 mm
09:15 18 °C 16.2 °C 1013.8 hPa Calm   3.2 km/h 89% 0 mm
09:20 18.2 °C 16.3 °C 1013.8 hPa Calm   3.2 km/h 89% 0 mm
09:25 18.3 °C 16.1 °C 1013.8 hPa NNE 1.6 km/h 3.2 km/h 87% 0 mm
09:30 18.4 °C 16.4 °C 1013.8 hPa Calm   3.2 km/h 88% 0 mm
09:35 18.7 °C 16.4 °C 1013.8 hPa Calm   3.2 km/h 87% 0 mm
09:40 18.6 °C 16.2 °C 1013.8 hPa Calm   4.8 km/h 86% 0 mm
09:45 18.7 °C 16.4 °C 1013.8 hPa Calm   4.8 km/h 87% 0 mm
09:50 18.6 °C 16.2 °C 1013.4 hPa Calm   6.4 km/h 86% 0 mm
10:00 18.8 °C 16.4 °C 1013.4 hPa Calm   4.8 km/h 86% 0 mm
10:05 18.9 °C 16.4 °C 1013.4 hPa Calm   4.8 km/h 85% 0 mm
10:10 19.1 °C 16.3 °C 1013.4 hPa Calm   4.8 km/h 84% 0 mm
10:15 19.2 °C 16.4 °C 1013.4 hPa NNE 1.6 km/h 3.2 km/h 84% 0 mm
10:20 19.4 °C 16.4 °C 1013.4 hPa Calm   3.2 km/h 83% 0 mm
10:25 19.6 °C 16.7 °C 1013.4 hPa Calm   6.4 km/h 83% 0 mm
10:35 19.7 °C 15.9 °C 1013.4 hPa NNE 1.6 km/h 4.8 km/h 79% 0 mm
10:40 19.8 °C 16.6 °C 1013.4 hPa Calm   6.4 km/h 82% 0 mm
10:45 20 °C 16.4 °C 1013.4 hPa Calm   6.4 km/h 80% 0 mm
10:50 20.2 °C 16.8 °C 1013.4 hPa Calm   6.4 km/h 81% 0 mm
10:55 20.1 °C 16.8 °C 1013.4 hPa NW 1.6 km/h 8 km/h 81% 0 mm
11:00 20.1 °C 17.3 °C 1013.4 hPa NW 1.6 km/h 8 km/h 84% 0 mm
11:05 20.2 °C 17.1 °C 1013.4 hPa Calm   9.7 km/h 82% 0 mm
11:10 20.3 °C 16.6 °C 1013.4 hPa WNW 1.6 km/h 9.7 km/h 79% 0 mm
11:15 20 °C 16.1 °C 1013.1 hPa NW 1.6 km/h 16.1 km/h 78% 0 mm
11:20 20 °C 16.7 °C 1013.1 hPa Calm   16.1 km/h 81% 0 mm
11:25 20.2 °C 16.6 °C 1013.1 hPa Calm   4.8 km/h 80% 0 mm
11:30 20.2 °C 16.3 °C 1013.1 hPa Calm   4.8 km/h 78% 0 mm
11:35 20.6 °C 16.7 °C 1013.1 hPa Calm   4.8 km/h 78% 0 mm
11:40 21.1 °C 16.7 °C 1013.1 hPa Calm   6.4 km/h 76% 0 mm
11:45 21 °C 16.4 °C 1013.1 hPa Calm   6.4 km/h 75% 0 mm
11:50 20.8 °C 16.2 °C 1013.1 hPa NW 6.4 km/h 12.9 km/h 75% 0 mm
11:55 20.9 °C 16.7 °C 1013.1 hPa NW 4.8 km/h 12.9 km/h 77% 0 mm
12:00 20.9 °C 16.6 °C 1013.1 hPa NW 4.8 km/h 9.7 km/h 76% 0 mm
12:05 21.1 °C 16.9 °C 1012.8 hPa NW 3.2 km/h 9.7 km/h 77% 0 mm
12:10 21.2 °C 16.6 °C 1012.8 hPa Calm   9.7 km/h 75% 0 mm
12:15 21.2 °C 16.8 °C 1012.8 hPa NNW 3.2 km/h 9.7 km/h 76% 0 mm
12:20 21.1 °C 16.9 °C 1012.8 hPa NW 3.2 km/h 14.5 km/h 77% 0 mm
12:25 21.3 °C 17.3 °C 1012.8 hPa Calm   14.5 km/h 78% 0 mm
12:30 21.4 °C 16.8 °C 1012.8 hPa NW 8 km/h 16.1 km/h 75% 0 mm
12:35 20.8 °C 16.6 °C 1012.8 hPa WNW 11.3 km/h 16.1 km/h 77% 0 mm
12:40 20.4 °C 16.6 °C 1012.8 hPa NW 12.9 km/h 17.7 km/h 79% 0 mm
12:45 20.2 °C 17 °C 1012.8 hPa WNW 9.7 km/h 17.7 km/h 82% 0 mm
12:55 20.2 °C 16.6 °C 1012.8 hPa NW 11.3 km/h 20.9 km/h 80% 0 mm
13:00 19.9 °C 16.8 °C 1012.8 hPa NW 3.2 km/h 17.7 km/h 82% 0 mm
13:05 19.9 °C 16.7 °C 1012.4 hPa NW 6.4 km/h 16.1 km/h 82% 0 mm
13:15 19.7 °C 16.5 °C 1012.4 hPa WNW 6.4 km/h 17.7 km/h 82% 0 mm
13:20 19.6 °C 16.7 °C 1012.4 hPa NW 8 km/h 16.1 km/h 83% 0 mm
13:25 19.4 °C 16.2 °C 1012.4 hPa WNW 11.3 km/h 17.7 km/h 82% 0 mm
13:30 19.1 °C 16.1 °C 1012.4 hPa WNW 11.3 km/h 19.3 km/h 83% 0 mm
13:35 18.9 °C 16.2 °C 1012.4 hPa West 8 km/h 19.3 km/h 84% 0 mm
13:40 18.9 °C 16.3 °C 1012.4 hPa WNW 8 km/h 17.7 km/h 85% 0 mm
13:45 18.8 °C 16.3 °C 1012.4 hPa West 6.4 km/h 14.5 km/h 85% 0 mm
13:50 18.8 °C 16 °C 1012.4 hPa West 6.4 km/h 12.9 km/h 84% 0 mm
13:55 18.7 °C 16.2 °C 1012.1 hPa WNW 6.4 km/h 12.9 km/h 85% 0 mm
14:00 18.7 °C 16.3 °C 1012.1 hPa WNW 3.2 km/h 14.5 km/h 86% 1 mm
14:05 18.6 °C 16.6 °C 1012.1 hPa North 3.2 km/h 14.5 km/h 88% 5.1 mm
14:10 18.2 °C 16.4 °C 1012.1 hPa Calm   6.4 km/h 89% 7.1 mm
14:15 17.8 °C 16.2 °C 1012.4 hPa Calm   9.7 km/h 90% 8.1 mm
14:20 17.7 °C 16 °C 1012.1 hPa Calm   9.7 km/h 90% 8.6 mm
14:25 17.6 °C 16.1 °C 1012.1 hPa Calm   4.8 km/h 91% 9.4 mm
14:30 17.5 °C 16 °C 1012.1 hPa Calm   3.2 km/h 91% 10.9 mm
14:35 17.3 °C 15.8 °C 1011.7 hPa Calm   6.4 km/h 91% 12.4 mm
14:40 17.1 °C 15.8 °C 1012.1 hPa Calm   6.4 km/h 92% 12.7 mm
14:45 16.9 °C 15.4 °C 1012.4 hPa Calm   4.8 km/h 91% 12.7 mm
14:50 16.8 °C 15.4 °C 1012.1 hPa NNW 1.6 km/h 4.8 km/h 92% 12.7 mm
14:55 16.7 °C 15.4 °C 1012.1 hPa West 3.2 km/h 8 km/h 92% 12.7 mm
15:00 16.6 °C 15.5 °C 1011.7 hPa SSW 3.2 km/h 8 km/h 93% 12.7 mm
15:05 16.6 °C 15.4 °C 1012.1 hPa SW 3.2 km/h 9.7 km/h 93% 13 mm
15:10 16.6 °C 15.4 °C 1011.7 hPa Calm   9.7 km/h 93% 13 mm
15:15 16.6 °C 15.7 °C 1011.4 hPa Calm   4.8 km/h 94% 13 mm
15:20 16.6 °C 15.6 °C 1011.4 hPa Calm   1.6 km/h 94% 13 mm
15:25 16.5 °C 15.4 °C 1011.4 hPa Calm   1.6 km/h 93% 13 mm
15:30 16.7 °C 15.7 °C 1011.1 hPa Calm     94% 13.2 mm
15:35 16.8 °C 15.8 °C 1011.4 hPa Calm     94% 13.5 mm
15:40 17 °C 16.2 °C 1011.4 hPa Calm     95% 13.7 mm
15:45 17.3 °C 16.5 °C 1011.1 hPa Calm   4.8 km/h 95% 13.7 mm
15:50 17.4 °C 16.6 °C 1011.1 hPa Calm   4.8 km/h 95% 13.7 mm
16:00 17.4 °C 16.6 °C 1011.4 hPa Calm   3.2 km/h 95% 13.7 mm
16:05 17.4 °C 16.6 °C 1011.4 hPa SSW 1.6 km/h 4.8 km/h 95% 13.7 mm
16:10 17.3 °C 16.5 °C 1011.1 hPa Calm   4.8 km/h 95% 13.7 mm
16:15 17.3 °C 16.5 °C 1011.1 hPa Calm   3.2 km/h 95% 13.7 mm
16:20 17.2 °C 16.3 °C 1011.1 hPa Calm   1.6 km/h 95% 13.7 mm
16:25 17 °C 16.2 °C 1011.1 hPa Calm   3.2 km/h 95% 13.7 mm
16:35 16.8 °C 16.1 °C 1011.4 hPa Calm   3.2 km/h 95% 14 mm
16:40 16.8 °C 16.1 °C 1011.4 hPa SSW 1.6 km/h 6.4 km/h 95% 14 mm
16:45 16.7 °C 15.9 °C 1011.7 hPa SE 4.8 km/h 9.7 km/h 95% 14 mm
16:50 16.5 °C 15.7 °C 1011.7 hPa SSE 3.2 km/h 9.7 km/h 95% 14 mm
16:55 16.4 °C 15.6 °C 1012.1 hPa SSE 3.2 km/h 9.7 km/h 95% 14.2 mm
17:00 16.3 °C 15.3 °C 1012.1 hPa Calm   8 km/h 94% 14.2 mm
17:05 16.2 °C 15.3 °C 1011.7 hPa Calm   8 km/h 94% 14.2 mm
17:10 16.2 °C 15.2 °C 1011.7 hPa Calm   4.8 km/h 94% 14.5 mm
17:15 16.1 °C 14.9 °C 1012.1 hPa Calm   4.8 km/h 93% 14.7 mm
17:20 16.1 °C 14.9 °C 1012.1 hPa Calm   1.6 km/h 93% 14.7 mm
17:25 16.1 °C 15.1 °C 1012.1 hPa Calm   1.6 km/h 94% 14.7 mm
17:30 16 °C 15.1 °C 1012.1 hPa Calm   3.2 km/h 94% 15 mm
17:35 15.9 °C 15 °C 1012.1 hPa Calm   3.2 km/h 94% 15.2 mm
17:40 15.9 °C 15 °C 1012.1 hPa Calm   3.2 km/h 94% 15.2 mm
17:45 16 °C 15.1 °C 1012.1 hPa Calm   3.2 km/h 94% 15.2 mm
17:50 16 °C 15.1 °C 1011.7 hPa Calm   3.2 km/h 94% 15.2 mm
17:55 16 °C 15.2 °C 1011.7 hPa Calm   1.6 km/h 95% 15.2 mm
18:00 16.1 °C 15.3 °C 1011.7 hPa Calm   3.2 km/h 95% 15.5 mm
18:10 16.1 °C 15.3 °C 1011.7 hPa Calm     95% 15.7 mm
18:15 16.1 °C 15.3 °C 1012.1 hPa Calm   1.6 km/h 95% 15.7 mm
18:20 16 °C 15.2 °C 1012.1 hPa NE 3.2 km/h 4.8 km/h 95% 15.7 mm
18:25 15.8 °C 15.1 °C 1012.1 hPa Calm   4.8 km/h 95% 15.7 mm
18:30 15.8 °C 15 °C 1012.1 hPa Calm   1.6 km/h 95% 15.7 mm
18:35 15.7 °C 14.9 °C 1012.1 hPa Calm     95% 15.7 mm
18:40 15.7 °C 14.9 °C 1012.1 hPa Calm     95% 15.7 mm
18:45 15.7 °C 14.9 °C 1012.4 hPa Calm     95% 16.3 mm
18:50 15.7 °C 14.9 °C 1012.4 hPa ENE 1.6 km/h 4.8 km/h 95% 16.3 mm
18:55 15.6 °C 14.8 °C 1012.8 hPa Calm   4.8 km/h 95% 16.8 mm
19:00 15.4 °C 14.7 °C 1012.8 hPa East 1.6 km/h 11.3 km/h 95% 17 mm
19:05 15.4 °C 14.7 °C 1012.4 hPa Calm   11.3 km/h 95% 17.3 mm
19:10 15.4 °C 14.6 °C 1012.4 hPa Calm   4.8 km/h 95% 17.5 mm
19:15 15.3 °C 14.6 °C 1012.1 hPa Calm   3.2 km/h 95% 18 mm
19:20 15.3 °C 14.5 °C 1012.1 hPa Calm   1.6 km/h 95% 18.3 mm
19:25 15.2 °C 14.4 °C 1011.7 hPa Calm   1.6 km/h 95% 18.8 mm
19:30 15.2 °C 14.4 °C 1011.7 hPa Calm   3.2 km/h 95% 19.3 mm
19:35 15.1 °C 14.5 °C 1011.7 hPa Calm   3.2 km/h 96% 19.8 mm
19:45 15.1 °C 14.4 °C 1011.7 hPa Calm   4.8 km/h 96% 20.3 mm
19:50 15 °C 14.2 °C 1011.7 hPa ESE 3.2 km/h 4.8 km/h 95% 20.3 mm
19:55 15 °C 14.4 °C 1011.7 hPa ESE 4.8 km/h 8 km/h 96% 20.3 mm
20:00 15 °C 14.4 °C 1011.7 hPa East 4.8 km/h 11.3 km/h 96% 20.3 mm
20:05 15 °C 14.4 °C 1011.7 hPa Calm   11.3 km/h 96% 20.3 mm
20:10 15 °C 14.4 °C 1011.7 hPa Calm   8 km/h 96% 20.3 mm
20:15 15 °C 14.4 °C 1012.1 hPa Calm   8 km/h 96% 20.3 mm
20:20 15 °C 14.4 °C 1012.1 hPa Calm   3.2 km/h 96% 20.3 mm
20:25 15 °C 14.4 °C 1012.4 hPa Calm   3.2 km/h 96% 20.3 mm
20:30 15 °C 14.4 °C 1012.4 hPa Calm     96% 20.3 mm
20:35 15 °C 14.4 °C 1012.4 hPa Calm     96% 20.3 mm
20:45 15 °C 14.4 °C 1012.8 hPa Calm     96% 20.3 mm
20:50 15 °C 14.4 °C 1012.8 hPa Calm     96% 20.3 mm
21:00 14.9 °C 14.3 °C 1012.8 hPa Calm     96% 20.3 mm
21:05 14.8 °C 14.2 °C 1012.8 hPa Calm     96% 20.3 mm
21:10 14.7 °C 14.1 °C 1012.8 hPa Calm     96% 20.3 mm
21:15 14.7 °C 14.1 °C 1013.1 hPa Calm   3.2 km/h 96% 20.3 mm
21:20 14.6 °C 14 °C 1012.8 hPa Calm   3.2 km/h 96% 20.3 mm
21:25 14.6 °C 14 °C 1012.8 hPa Calm   1.6 km/h 96% 20.3 mm
21:30 14.5 °C 13.9 °C 1012.8 hPa Calm     96% 20.3 mm
21:35 14.5 °C 13.9 °C 1013.1 hPa Calm     96% 20.3 mm
21:40 14.5 °C 13.9 °C 1012.8 hPa Calm     96% 20.3 mm
21:45 14.4 °C 13.8 °C 1013.1 hPa Calm   1.6 km/h 96% 20.3 mm
21:50 14.6 °C 13.9 °C 1013.1 hPa Calm   1.6 km/h 96% 20.3 mm
21:55 14.6 °C 14 °C 1012.8 hPa East 1.6 km/h 4.8 km/h 96% 20.3 mm
22:00 14.6 °C 14 °C 1012.8 hPa Calm   4.8 km/h 96% 20.3 mm
22:05 14.6 °C 13.9 °C 1012.8 hPa Calm   1.6 km/h 96% 20.3 mm
22:10 14.4 °C 13.8 °C 1012.8 hPa Calm     96% 20.3 mm
22:15 14.3 °C 13.7 °C 1012.8 hPa Calm     96% 20.3 mm
22:20 14.2 °C 13.6 °C 1012.8 hPa Calm     96% 20.3 mm
22:25 14.1 °C 13.4 °C 1012.8 hPa Calm     96% 20.3 mm
22:30 14.1 °C 13.4 °C 1012.8 hPa Calm     96% 20.3 mm
22:35 14.1 °C 13.5 °C 1012.8 hPa Calm     96% 20.3 mm
22:40 14.2 °C 13.6 °C 1012.4 hPa Calm   3.2 km/h 96% 20.3 mm
22:45 14.2 °C 13.6 °C 1012.4 hPa Calm   3.2 km/h 96% 20.3 mm
22:50 14.2 °C 13.6 °C 1012.4 hPa Calm     96% 20.3 mm
22:55 14.1 °C 13.4 °C 1012.4 hPa Calm     96% 20.3 mm
23:05 13.9 °C 13.3 °C 1012.8 hPa Calm   1.6 km/h 96% 20.3 mm
23:15 14.1 °C 13.4 °C 1012.8 hPa Calm     96% 20.3 mm
23:20 13.9 °C 13.3 °C 1012.8 hPa Calm     96% 20.3 mm
23:25 13.9 °C 13.3 °C 1012.8 hPa Calm     96% 20.3 mm
23:30 14 °C 13.4 °C 1012.8 hPa Calm     96% 20.3 mm
23:35 14.1 °C 13.4 °C 1012.8 hPa Calm     96% 20.3 mm
23:40 14 °C 13.4 °C 1012.8 hPa Calm     96% 20.3 mm
23:50 14.2 °C 13.8 °C 1013.1 hPa Calm   8 km/h 97% 20.3 mm
23:55 14.3 °C 13.9 °C 1013.1 hPa NE 3.2 km/h 8 km/h 97% 20.3 mm
Westford Weather
Compliments of Weather Underground

 
 
Current Radar Loop:

Copyright © WestfordWeather.net 2007-2014. All rights reserved.